sensor_id;sensor_type;location;lat;lon;timestamp;pressure;altitude;pressure_sealevel;temperature;humidity
44934;BME280;30667;43.614;1.442;2023-09-30T00:01:02;100807.22;;;21.47;100.00
44934;BME280;30667;43.614;1.442;2023-09-30T00:03:28;100807.41;;;21.50;100.00
44934;BME280;30667;43.614;1.442;2023-09-30T00:05:54;100802.06;;;21.45;100.00
44934;BME280;30667;43.614;1.442;2023-09-30T00:08:20;100815.50;;;21.47;100.00
44934;BME280;30667;43.614;1.442;2023-09-30T00:10:46;100817.94;;;21.48;100.00
44934;BME280;30667;43.614;1.442;2023-09-30T00:13:12;100812.94;;;21.41;100.00
44934;BME280;30667;43.614;1.442;2023-09-30T00:15:37;100811.97;;;21.37;100.00
44934;BME280;30667;43.614;1.442;2023-09-30T00:18:03;100815.53;;;21.38;100.00
44934;BME280;30667;43.614;1.442;2023-09-30T00:20:30;100821.38;;;21.36;100.00
44934;BME280;30667;43.614;1.442;2023-09-30T00:22:56;100821.84;;;21.38;100.00
44934;BME280;30667;43.614;1.442;2023-09-30T00:25:21;100814.94;;;21.23;100.00
44934;BME280;30667;43.614;1.442;2023-09-30T00:27:47;100816.88;;;21.23;100.00
44934;BME280;30667;43.614;1.442;2023-09-30T00:30:13;100815.78;;;21.15;100.00
44934;BME280;30667;43.614;1.442;2023-09-30T00:32:38;100809.47;;;21.15;100.00
44934;BME280;30667;43.614;1.442;2023-09-30T00:35:05;100814.19;;;21.14;100.00
44934;BME280;30667;43.614;1.442;2023-09-30T00:37:38;100821.47;;;21.10;100.00
44934;BME280;30667;43.614;1.442;2023-09-30T00:40:05;100812.09;;;21.11;100.00
44934;BME280;30667;43.614;1.442;2023-09-30T00:42:30;100812.22;;;21.15;100.00
44934;BME280;30667;43.614;1.442;2023-09-30T00:44:56;100812.38;;;21.18;100.00
44934;BME280;30667;43.614;1.442;2023-09-30T00:47:22;100817.59;;;21.11;100.00
44934;BME280;30667;43.614;1.442;2023-09-30T00:49:50;100811.91;;;21.08;100.00
44934;BME280;30667;43.614;1.442;2023-09-30T00:52:17;100808.03;;;21.09;100.00
44934;BME280;30667;43.614;1.442;2023-09-30T00:54:43;100812.59;;;21.04;100.00
44934;BME280;30667;43.614;1.442;2023-09-30T00:57:10;100806.09;;;21.09;100.00
44934;BME280;30667;43.614;1.442;2023-09-30T00:59:37;100808.69;;;21.05;100.00
44934;BME280;30667;43.614;1.442;2023-09-30T01:02:03;100806.41;;;21.08;100.00
44934;BME280;30667;43.614;1.442;2023-09-30T01:04:31;100805.50;;;20.95;100.00
44934;BME280;30667;43.614;1.442;2023-09-30T01:06:56;100807.78;;;20.93;100.00
44934;BME280;30667;43.614;1.442;2023-09-30T01:09:25;100803.59;;;20.86;100.00
44934;BME280;30667;43.614;1.442;2023-09-30T01:11:51;100807.97;;;20.88;100.00
44934;BME280;30667;43.614;1.442;2023-09-30T01:14:26;100817.16;;;20.92;100.00
44934;BME280;30667;43.614;1.442;2023-09-30T01:16:51;100810.06;;;20.91;100.00
44934;BME280;30667;43.614;1.442;2023-09-30T01:19:17;100804.56;;;20.82;100.00
44934;BME280;30667;43.614;1.442;2023-09-30T01:21:42;100806.19;;;20.83;100.00
44934;BME280;30667;43.614;1.442;2023-09-30T01:24:13;100814.75;;;20.81;100.00
44934;BME280;30667;43.614;1.442;2023-09-30T01:26:39;100809.31;;;20.73;100.00
44934;BME280;30667;43.614;1.442;2023-09-30T01:29:04;100811.03;;;20.77;100.00
44934;BME280;30667;43.614;1.442;2023-09-30T01:31:29;100819.16;;;20.82;100.00
44934;BME280;30667;43.614;1.442;2023-09-30T01:33:55;100809.91;;;20.78;100.00
44934;BME280;30667;43.614;1.442;2023-09-30T01:36:21;100814.81;;;20.73;100.00
44934;BME280;30667;43.614;1.442;2023-09-30T01:38:46;100821.28;;;20.68;100.00
44934;BME280;30667;43.614;1.442;2023-09-30T01:41:11;100819.19;;;20.65;100.00
44934;BME280;30667;43.614;1.442;2023-09-30T01:43:37;100816.22;;;20.61;100.00
44934;BME280;30667;43.614;1.442;2023-09-30T01:46:03;100815.59;;;20.64;100.00
44934;BME280;30667;43.614;1.442;2023-09-30T01:48:28;100820.13;;;20.60;100.00
44934;BME280;30667;43.614;1.442;2023-09-30T01:50:53;100825.16;;;20.49;100.00
44934;BME280;30667;43.614;1.442;2023-09-30T01:53:19;100826.91;;;20.54;100.00
44934;BME280;30667;43.614;1.442;2023-09-30T01:55:44;100819.28;;;20.60;100.00
44934;BME280;30667;43.614;1.442;2023-09-30T01:58:10;100816.41;;;20.56;100.00
44934;BME280;30667;43.614;1.442;2023-09-30T02:00:36;100811.53;;;20.53;100.00
44934;BME280;30667;43.614;1.442;2023-09-30T02:03:01;100825.47;;;20.48;100.00
44934;BME280;30667;43.614;1.442;2023-09-30T02:05:27;100815.13;;;20.45;100.00
44934;BME280;30667;43.614;1.442;2023-09-30T02:07:52;100813.34;;;20.49;100.00
44934;BME280;30667;43.614;1.442;2023-09-30T02:10:18;100815.44;;;20.43;100.00
44934;BME280;30667;43.614;1.442;2023-09-30T02:12:46;100819.03;;;20.44;100.00
44934;BME280;30667;43.614;1.442;2023-09-30T02:15:12;100820.63;;;20.45;100.00
44934;BME280;30667;43.614;1.442;2023-09-30T02:17:38;100822.56;;;20.44;100.00
44934;BME280;30667;43.614;1.442;2023-09-30T02:20:04;100825.00;;;20.46;100.00
44934;BME280;30667;43.614;1.442;2023-09-30T02:22:38;100822.56;;;20.44;100.00
44934;BME280;30667;43.614;1.442;2023-09-30T02:25:04;100820.47;;;20.41;100.00
44934;BME280;30667;43.614;1.442;2023-09-30T02:27:32;100824.66;;;20.39;100.00
44934;BME280;30667;43.614;1.442;2023-09-30T02:29:57;100819.66;;;20.41;100.00
44934;BME280;30667;43.614;1.442;2023-09-30T02:32:23;100823.38;;;20.45;100.00
44934;BME280;30667;43.614;1.442;2023-09-30T02:34:49;100822.88;;;20.43;100.00
44934;BME280;30667;43.614;1.442;2023-09-30T02:37:15;100820.97;;;20.35;100.00
44934;BME280;30667;43.614;1.442;2023-09-30T02:39:42;100816.41;;;20.39;100.00
44934;BME280;30667;43.614;1.442;2023-09-30T02:42:08;100819.34;;;20.33;100.00
44934;BME280;30667;43.614;1.442;2023-09-30T02:44:34;100817.88;;;20.27;100.00
44934;BME280;30667;43.614;1.442;2023-09-30T02:46:59;100814.97;;;20.24;100.00
44934;BME280;30667;43.614;1.442;2023-09-30T02:49:24;100808.34;;;20.25;100.00
44934;BME280;30667;43.614;1.442;2023-09-30T02:51:50;100813.03;;;20.24;100.00
44934;BME280;30667;43.614;1.442;2023-09-30T02:54:16;100808.34;;;20.16;100.00
44934;BME280;30667;43.614;1.442;2023-09-30T02:56:41;100811.56;;;20.09;100.00
44934;BME280;30667;43.614;1.442;2023-09-30T02:59:07;100801.53;;;20.13;100.00
44934;BME280;30667;43.614;1.442;2023-09-30T03:01:33;100807.72;;;20.10;100.00
44934;BME280;30667;43.614;1.442;2023-09-30T03:03:58;100810.44;;;20.19;100.00
44934;BME280;30667;43.614;1.442;2023-09-30T03:06:24;100809.31;;;20.20;100.00
44934;BME280;30667;43.614;1.442;2023-09-30T03:08:49;100810.28;;;20.16;100.00
44934;BME280;30667;43.614;1.442;2023-09-30T03:11:14;100808.50;;;20.11;100.00
44934;BME280;30667;43.614;1.442;2023-09-30T03:13:40;100807.19;;;20.08;100.00
44934;BME280;30667;43.614;1.442;2023-09-30T03:16:07;100810.75;;;20.00;100.00
44934;BME280;30667;43.614;1.442;2023-09-30T03:18:33;100805.41;;;20.04;100.00
44934;BME280;30667;43.614;1.442;2023-09-30T03:21:00;100808.69;;;20.06;100.00
44934;BME280;30667;43.614;1.442;2023-09-30T03:23:28;100799.59;;;20.05;100.00
44934;BME280;30667;43.614;1.442;2023-09-30T03:25:59;100803.97;;;20.06;100.00
44934;BME280;30667;43.614;1.442;2023-09-30T03:28:24;100806.22;;;19.95;100.00
44934;BME280;30667;43.614;1.442;2023-09-30T03:30:50;100806.56;;;19.94;100.00
44934;BME280;30667;43.614;1.442;2023-09-30T03:33:15;100808.19;;;19.95;100.00
44934;BME280;30667;43.614;1.442;2023-09-30T03:35:41;100810.75;;;19.91;100.00
44934;BME280;30667;43.614;1.442;2023-09-30T03:38:06;100806.38;;;19.90;100.00
44934;BME280;30667;43.614;1.442;2023-09-30T03:40:34;100808.78;;;19.83;100.00
44934;BME280;30667;43.614;1.442;2023-09-30T03:43:03;100807.50;;;19.89;100.00
44934;BME280;30667;43.614;1.442;2023-09-30T03:45:30;100809.47;;;19.89;100.00
44934;BME280;30667;43.614;1.442;2023-09-30T03:47:58;100812.22;;;19.80;100.00
44934;BME280;30667;43.614;1.442;2023-09-30T03:50:23;100812.38;;;19.84;100.00
44934;BME280;30667;43.614;1.442;2023-09-30T03:52:49;100806.56;;;19.85;100.00
44934;BME280;30667;43.614;1.442;2023-09-30T03:55:16;100796.06;;;19.78;100.00
44934;BME280;30667;43.614;1.442;2023-09-30T03:57:43;100810.09;;;19.86;100.00
44934;BME280;30667;43.614;1.442;2023-09-30T04:00:12;100805.88;;;19.80;100.00
44934;BME280;30667;43.614;1.442;2023-09-30T04:02:42;100809.31;;;19.85;100.00
44934;BME280;30667;43.614;1.442;2023-09-30T04:05:08;100803.47;;;19.78;100.00
44934;BME280;30667;43.614;1.442;2023-09-30T04:07:36;100801.97;;;19.72;100.00
44934;BME280;30667;43.614;1.442;2023-09-30T04:10:02;100807.44;;;19.72;100.00
44934;BME280;30667;43.614;1.442;2023-09-30T04:12:29;100796.66;;;19.75;100.00
44934;BME280;30667;43.614;1.442;2023-09-30T04:14:55;100801.84;;;19.77;100.00
44934;BME280;30667;43.614;1.442;2023-09-30T04:17:20;100797.50;;;19.76;100.00
44934;BME280;30667;43.614;1.442;2023-09-30T04:19:48;100797.97;;;19.78;100.00
44934;BME280;30667;43.614;1.442;2023-09-30T04:22:16;100797.78;;;19.74;100.00
44934;BME280;30667;43.614;1.442;2023-09-30T04:24:42;100802.78;;;19.72;100.00
44934;BME280;30667;43.614;1.442;2023-09-30T04:27:07;100797.63;;;19.71;100.00
44934;BME280;30667;43.614;1.442;2023-09-30T04:29:33;100794.03;;;19.62;100.00
44934;BME280;30667;43.614;1.442;2023-09-30T04:31:59;100795.66;;;19.63;100.00
44934;BME280;30667;43.614;1.442;2023-09-30T04:34:25;100802.59;;;19.60;100.00
44934;BME280;30667;43.614;1.442;2023-09-30T04:36:52;100793.38;;;19.56;100.00
44934;BME280;30667;43.614;1.442;2023-09-30T04:39:18;100795.78;;;19.57;100.00
44934;BME280;30667;43.614;1.442;2023-09-30T04:41:44;100789.50;;;19.57;100.00
44934;BME280;30667;43.614;1.442;2023-09-30T04:44:09;100792.41;;;19.60;100.00
44934;BME280;30667;43.614;1.442;2023-09-30T04:46:35;100793.38;;;19.56;100.00
44934;BME280;30667;43.614;1.442;2023-09-30T04:49:01;100783.69;;;19.58;100.00
44934;BME280;30667;43.614;1.442;2023-09-30T04:51:27;100789.53;;;19.66;100.00
44934;BME280;30667;43.614;1.442;2023-09-30T04:53:53;100791.44;;;19.56;100.00
44934;BME280;30667;43.614;1.442;2023-09-30T04:56:20;100801.13;;;19.54;100.00
44934;BME280;30667;43.614;1.442;2023-09-30T04:58:45;100808.19;;;19.46;100.00
44934;BME280;30667;43.614;1.442;2023-09-30T05:01:12;100809.81;;;19.47;100.00
44934;BME280;30667;43.614;1.442;2023-09-30T05:03:37;100804.66;;;19.46;100.00
44934;BME280;30667;43.614;1.442;2023-09-30T05:06:03;100807.56;;;19.49;100.00
44934;BME280;30667;43.614;1.442;2023-09-30T05:08:28;100802.44;;;19.56;100.00
44934;BME280;30667;43.614;1.442;2023-09-30T05:10:55;100805.19;;;19.56;100.00
44934;BME280;30667;43.614;1.442;2023-09-30T05:13:21;100813.88;;;19.50;100.00
44934;BME280;30667;43.614;1.442;2023-09-30T05:15:49;100825.28;;;19.43;100.00
44934;BME280;30667;43.614;1.442;2023-09-30T05:18:14;100823.50;;;19.38;100.00
44934;BME280;30667;43.614;1.442;2023-09-30T05:20:40;100827.38;;;19.37;100.00
44934;BME280;30667;43.614;1.442;2023-09-30T05:23:06;100830.75;;;19.34;100.00
44934;BME280;30667;43.614;1.442;2023-09-30T05:25:37;100831.72;;;19.30;100.00
44934;BME280;30667;43.614;1.442;2023-09-30T05:28:03;100836.84;;;19.22;100.00
44934;BME280;30667;43.614;1.442;2023-09-30T05:30:29;100844.09;;;19.18;100.00
44934;BME280;30667;43.614;1.442;2023-09-30T05:32:54;100843.94;;;19.23;100.00
44934;BME280;30667;43.614;1.442;2023-09-30T05:35:20;100839.41;;;19.19;100.00
44934;BME280;30667;43.614;1.442;2023-09-30T05:37:47;100830.28;;;19.32;100.00
44934;BME280;30667;43.614;1.442;2023-09-30T05:40:13;100843.06;;;19.46;100.00
44934;BME280;30667;43.614;1.442;2023-09-30T05:42:49;100838.34;;;19.86;100.00
44934;BME280;30667;43.614;1.442;2023-09-30T05:45:15;100836.94;;;19.98;100.00
44934;BME280;30667;43.614;1.442;2023-09-30T05:47:41;100837.91;;;19.93;100.00
44934;BME280;30667;43.614;1.442;2023-09-30T05:50:07;100843.41;;;19.93;100.00
44934;BME280;30667;43.614;1.442;2023-09-30T05:52:34;100839.69;;;20.15;100.00
44934;BME280;30667;43.614;1.442;2023-09-30T05:54:59;100843.41;;;19.93;100.00
44934;BME280;30667;43.614;1.442;2023-09-30T05:57:26;100846.50;;;20.44;100.00
44934;BME280;30667;43.614;1.442;2023-09-30T05:59:51;100844.41;;;20.41;100.00
44934;BME280;30667;43.614;1.442;2023-09-30T06:02:17;100843.59;;;20.66;100.00
44934;BME280;30667;43.614;1.442;2023-09-30T06:04:42;100841.06;;;21.17;100.00
44934;BME280;30667;43.614;1.442;2023-09-30T06:07:08;100852.25;;;20.95;100.00
44934;BME280;30667;43.614;1.442;2023-09-30T06:09:33;100850.09;;;21.18;100.00
44934;BME280;30667;43.614;1.442;2023-09-30T06:11:59;100856.63;;;21.52;100.00
44934;BME280;30667;43.614;1.442;2023-09-30T06:14:28;100854.56;;;21.40;100.00
44934;BME280;30667;43.614;1.442;2023-09-30T06:16:56;100852.84;;;21.18;100.00
44934;BME280;30667;43.614;1.442;2023-09-30T06:19:22;100859.19;;;21.10;100.00
44934;BME280;30667;43.614;1.442;2023-09-30T06:21:51;100863.25;;;20.95;100.00
44934;BME280;30667;43.614;1.442;2023-09-30T06:24:16;100857.75;;;20.95;100.00
44934;BME280;30667;43.614;1.442;2023-09-30T06:26:42;100863.13;;;20.56;100.00
44934;BME280;30667;43.614;1.442;2023-09-30T06:29:07;100878.63;;;21.04;100.00
44934;BME280;30667;43.614;1.442;2023-09-30T06:31:32;100876.22;;;20.24;100.00
44934;BME280;30667;43.614;1.442;2023-09-30T06:33:59;100869.00;;;19.71;100.00
44934;BME280;30667;43.614;1.442;2023-09-30T06:36:25;100874.44;;;19.53;100.00
44934;BME280;30667;43.614;1.442;2023-09-30T06:38:51;100870.28;;;19.33;100.00
44934;BME280;30667;43.614;1.442;2023-09-30T06:41:18;100873.41;;;19.40;100.00
44934;BME280;30667;43.614;1.442;2023-09-30T06:43:44;100868.25;;;19.39;100.00
44934;BME280;30667;43.614;1.442;2023-09-30T06:46:10;100879.22;;;19.39;100.00
44934;BME280;30667;43.614;1.442;2023-09-30T06:48:36;100874.34;;;19.36;100.00
44934;BME280;30667;43.614;1.442;2023-09-30T06:51:02;100880.81;;;19.40;100.00
44934;BME280;30667;43.614;1.442;2023-09-30T06:53:28;100884.56;;;19.44;100.00
44934;BME280;30667;43.614;1.442;2023-09-30T06:55:53;100884.56;;;19.44;100.00
44934;BME280;30667;43.614;1.442;2023-09-30T06:58:19;100882.13;;;19.42;100.00
44934;BME280;30667;43.614;1.442;2023-09-30T07:00:49;100884.41;;;19.49;100.00
44934;BME280;30667;43.614;1.442;2023-09-30T07:03:16;100878.91;;;19.49;100.00
44934;BME280;30667;43.614;1.442;2023-09-30T07:05:42;100882.34;;;19.55;100.00
44934;BME280;30667;43.614;1.442;2023-09-30T07:08:09;100881.72;;;20.16;100.00
44934;BME280;30667;43.614;1.442;2023-09-30T07:10:34;100882.53;;;20.77;100.00
44934;BME280;30667;43.614;1.442;2023-09-30T07:13:02;100888.84;;;20.34;100.00
44934;BME280;30667;43.614;1.442;2023-09-30T07:15:27;100892.22;;;20.13;100.00
44934;BME280;30667;43.614;1.442;2023-09-30T07:17:53;100882.00;;;20.05;100.00
44934;BME280;30667;43.614;1.442;2023-09-30T07:20:18;100889.78;;;19.94;100.00
44934;BME280;30667;43.614;1.442;2023-09-30T07:22:45;100895.59;;;19.93;100.00
44934;BME280;30667;43.614;1.442;2023-09-30T07:25:10;100901.91;;;20.11;100.00
44934;BME280;30667;43.614;1.442;2023-09-30T07:27:35;100907.41;;;20.11;100.00
44934;BME280;30667;43.614;1.442;2023-09-30T07:30:01;100904.84;;;20.23;100.00
44934;BME280;30667;43.614;1.442;2023-09-30T07:32:27;100907.78;;;20.44;100.00
44934;BME280;30667;43.614;1.442;2023-09-30T07:34:52;100911.16;;;20.32;100.00
44934;BME280;30667;43.614;1.442;2023-09-30T07:37:18;100911.00;;;20.38;100.00
44934;BME280;30667;43.614;1.442;2023-09-30T07:39:44;100911.66;;;20.43;100.00
44934;BME280;30667;43.614;1.442;2023-09-30T07:42:10;100909.53;;;20.31;100.00
44934;BME280;30667;43.614;1.442;2023-09-30T07:44:36;100917.16;;;20.43;100.00
44934;BME280;30667;43.614;1.442;2023-09-30T07:47:03;100927.19;;;20.48;100.00
44934;BME280;30667;43.614;1.442;2023-09-30T07:49:29;100924.81;;;20.73;100.00
44934;BME280;30667;43.614;1.442;2023-09-30T07:51:55;100921.38;;;20.58;100.00
44934;BME280;30667;43.614;1.442;2023-09-30T07:54:20;100924.78;;;20.55;100.00
44934;BME280;30667;43.614;1.442;2023-09-30T07:56:46;100927.53;;;20.55;100.00
44934;BME280;30667;43.614;1.442;2023-09-30T07:59:11;100931.59;;;20.66;100.00
44934;BME280;30667;43.614;1.442;2023-09-30T08:01:36;100929.78;;;20.71;100.00
44934;BME280;30667;43.614;1.442;2023-09-30T08:04:03;100937.72;;;20.72;100.00
44934;BME280;30667;43.614;1.442;2023-09-30T08:06:28;100935.81;;;20.73;100.00
44934;BME280;30667;43.614;1.442;2023-09-30T08:08:53;100936.75;;;20.77;100.00
44934;BME280;30667;43.614;1.442;2023-09-30T08:11:20;100928.31;;;20.82;100.00
44934;BME280;30667;43.614;1.442;2023-09-30T08:13:46;100935.59;;;20.86;100.00
44934;BME280;30667;43.614;1.442;2023-09-30T08:16:12;100937.38;;;20.91;100.00
44934;BME280;30667;43.614;1.442;2023-09-30T08:18:38;100938.50;;;20.99;100.00
44934;BME280;30667;43.614;1.442;2023-09-30T08:21:03;100942.56;;;21.01;100.00
44934;BME280;30667;43.614;1.442;2023-09-30T08:23:30;100935.59;;;21.04;100.00
44934;BME280;30667;43.614;1.442;2023-09-30T08:25:58;100944.47;;;21.18;100.00
44934;BME280;30667;43.614;1.442;2023-09-30T08:28:24;100934.56;;;21.26;100.00
44934;BME280;30667;43.614;1.442;2023-09-30T08:30:49;100934.56;;;21.26;100.00
44934;BME280;30667;43.614;1.442;2023-09-30T08:33:16;100935.88;;;21.29;100.00
44934;BME280;30667;43.614;1.442;2023-09-30T08:35:41;100935.38;;;21.35;100.00
44934;BME280;30667;43.614;1.442;2023-09-30T08:38:07;100934.72;;;21.38;100.00
44934;BME280;30667;43.614;1.442;2023-09-30T08:40:32;100932.75;;;21.39;100.00
44934;BME280;30667;43.614;1.442;2023-09-30T08:42:58;100923.66;;;21.47;100.00
44934;BME280;30667;43.614;1.442;2023-09-30T08:45:28;100923.81;;;21.59;100.00
44934;BME280;30667;43.614;1.442;2023-09-30T08:47:54;100923.75;;;21.68;100.00
44934;BME280;30667;43.614;1.442;2023-09-30T08:50:20;100926.97;;;21.79;100.00
44934;BME280;30667;43.614;1.442;2023-09-30T08:52:47;100926.06;;;21.96;100.00
44934;BME280;30667;43.614;1.442;2023-09-30T08:55:14;100927.69;;;21.97;100.00
44934;BME280;30667;43.614;1.442;2023-09-30T08:57:42;100918.59;;;21.97;100.00
44934;BME280;30667;43.614;1.442;2023-09-30T09:00:10;100915.53;;;21.98;100.00
44934;BME280;30667;43.614;1.442;2023-09-30T09:02:42;100921.50;;;22.00;100.00
44934;BME280;30667;43.614;1.442;2023-09-30T09:05:08;100924.75;;;22.02;100.00
44934;BME280;30667;43.614;1.442;2023-09-30T09:07:34;100927.78;;;22.09;100.00
44934;BME280;30667;43.614;1.442;2023-09-30T09:10:10;100931.81;;;22.12;100.00
44934;BME280;30667;43.614;1.442;2023-09-30T09:12:39;100927.72;;;22.18;100.00
44934;BME280;30667;43.614;1.442;2023-09-30T09:15:06;100923.47;;;22.29;100.00
44934;BME280;30667;43.614;1.442;2023-09-30T09:17:45;100933.84;;;22.24;100.00
44934;BME280;30667;43.614;1.442;2023-09-30T09:20:12;100926.06;;;22.26;100.00
44934;BME280;30667;43.614;1.442;2023-09-30T09:22:46;100924.91;;;22.27;100.00
44934;BME280;30667;43.614;1.442;2023-09-30T09:25:12;100921.50;;;22.30;100.00
44934;BME280;30667;43.614;1.442;2023-09-30T09:27:38;100923.59;;;22.33;100.00
44934;BME280;30667;43.614;1.442;2023-09-30T09:30:20;100922.47;;;22.34;100.00
44934;BME280;30667;43.614;1.442;2023-09-30T09:35:21;100907.06;;;22.33;100.00
44934;BME280;30667;43.614;1.442;2023-09-30T09:38:03;100902.50;;;22.37;100.00
44934;BME280;30667;43.614;1.442;2023-09-30T09:40:31;100906.50;;;22.40;100.00
44934;BME280;30667;43.614;1.442;2023-09-30T09:42:58;100910.09;;;22.40;100.00
44934;BME280;30667;43.614;1.442;2023-09-30T09:45:27;100901.97;;;22.44;100.00
44934;BME280;30667;43.614;1.442;2023-09-30T09:47:54;100908.41;;;22.48;100.00
44934;BME280;30667;43.614;1.442;2023-09-30T09:50:23;100909.00;;;22.54;100.00
44934;BME280;30667;43.614;1.442;2023-09-30T09:52:53;100909.81;;;22.54;100.00
44934;BME280;30667;43.614;1.442;2023-09-30T09:55:22;100908.56;;;22.52;100.00
44934;BME280;30667;43.614;1.442;2023-09-30T09:57:48;100899.44;;;22.51;100.00
44934;BME280;30667;43.614;1.442;2023-09-30T10:00:19;100903.63;;;22.57;100.00
44934;BME280;30667;43.614;1.442;2023-09-30T10:02:46;100899.25;;;22.56;100.00
44934;BME280;30667;43.614;1.442;2023-09-30T10:05:13;100900.06;;;22.57;100.00
44934;BME280;30667;43.614;1.442;2023-09-30T10:10:16;100901.81;;;22.61;100.00
44934;BME280;30667;43.614;1.442;2023-09-30T10:12:45;100883.31;;;22.62;100.00
44934;BME280;30667;43.614;1.442;2023-09-30T10:18:02;100877.44;;;22.63;100.00
44934;BME280;30667;43.614;1.442;2023-09-30T10:20:32;100875.97;;;22.66;100.00
44934;BME280;30667;43.614;1.442;2023-09-30T10:25:42;100879.19;;;22.68;100.00
44934;BME280;30667;43.614;1.442;2023-09-30T10:28:34;100877.56;;;22.67;100.00
44934;BME280;30667;43.614;1.442;2023-09-30T10:36:28;100865.66;;;22.75;100.00
44934;BME280;30667;43.614;1.442;2023-09-30T10:38:54;100870.38;;;22.75;100.00
44934;BME280;30667;43.614;1.442;2023-09-30T10:46:51;100864.78;;;22.83;100.00
44934;BME280;30667;43.614;1.442;2023-09-30T10:51:52;100858.31;;;22.79;100.00
44934;BME280;30667;43.614;1.442;2023-09-30T10:54:25;100859.50;;;22.91;100.00
44934;BME280;30667;43.614;1.442;2023-09-30T10:56:51;100857.34;;;22.96;100.00
44934;BME280;30667;43.614;1.442;2023-09-30T10:59:22;100848.78;;;22.89;100.00
44934;BME280;30667;43.614;1.442;2023-09-30T11:01:48;100844.44;;;22.88;100.00
44934;BME280;30667;43.614;1.442;2023-09-30T11:04:14;100841.69;;;22.88;100.00
44934;BME280;30667;43.614;1.442;2023-09-30T11:06:41;100844.44;;;22.88;100.00
44934;BME280;30667;43.614;1.442;2023-09-30T11:09:07;100843.28;;;22.89;100.00
44934;BME280;30667;43.614;1.442;2023-09-30T11:11:45;100845.22;;;22.89;100.00
44934;BME280;30667;43.614;1.442;2023-09-30T11:14:29;100834.53;;;22.87;100.00
44934;BME280;30667;43.614;1.442;2023-09-30T11:16:57;100848.00;;;22.89;100.00
44934;BME280;30667;43.614;1.442;2023-09-30T11:19:23;100839.72;;;22.89;100.00
44934;BME280;30667;43.614;1.442;2023-09-30T11:21:51;100841.34;;;22.90;100.00
44934;BME280;30667;43.614;1.442;2023-09-30T11:24:17;100843.38;;;22.93;100.00
44934;BME280;30667;43.614;1.442;2023-09-30T11:26:44;100837.06;;;22.92;100.00
44934;BME280;30667;43.614;1.442;2023-09-30T11:29:14;100834.31;;;22.92;100.00
44934;BME280;30667;43.614;1.442;2023-09-30T11:31:47;100835.59;;;22.95;100.00
44934;BME280;30667;43.614;1.442;2023-09-30T11:34:14;100835.59;;;22.95;100.00
44934;BME280;30667;43.614;1.442;2023-09-30T11:36:47;100827.31;;;22.95;100.00
44934;BME280;30667;43.614;1.442;2023-09-30T11:39:25;100820.97;;;22.94;100.00
44934;BME280;30667;43.614;1.442;2023-09-30T11:41:51;100822.38;;;23.00;100.00
44934;BME280;30667;43.614;1.442;2023-09-30T11:44:18;100817.19;;;22.99;100.00
44934;BME280;30667;43.614;1.442;2023-09-30T11:49:34;100816.06;;;23.00;100.00
44934;BME280;30667;43.614;1.442;2023-09-30T11:52:12;100810.53;;;23.00;100.00
44934;BME280;30667;43.614;1.442;2023-09-30T11:54:40;100812.59;;;23.03;100.00
44934;BME280;30667;43.614;1.442;2023-09-30T11:57:11;100801.69;;;23.07;100.00
44934;BME280;30667;43.614;1.442;2023-09-30T11:59:40;100804.44;;;23.07;100.00
44934;BME280;30667;43.614;1.442;2023-09-30T12:02:07;100795.06;;;23.45;100.00
44934;BME280;30667;43.614;1.442;2023-09-30T12:04:34;100799.09;;;23.35;100.00
44934;BME280;30667;43.614;1.442;2023-09-30T12:07:00;100792.63;;;23.31;100.00
44934;BME280;30667;43.614;1.442;2023-09-30T12:09:25;100790.78;;;23.23;100.00
44934;BME280;30667;43.614;1.442;2023-09-30T12:11:53;100788.84;;;23.23;100.00
44934;BME280;30667;43.614;1.442;2023-09-30T12:14:19;100789.97;;;23.47;100.00
44934;BME280;30667;43.614;1.442;2023-09-30T12:16:45;100785.63;;;23.46;100.00
44934;BME280;30667;43.614;1.442;2023-09-30T12:19:12;100781.94;;;23.66;100.00
44934;BME280;30667;43.614;1.442;2023-09-30T12:21:39;100775.63;;;23.41;100.00
44934;BME280;30667;43.614;1.442;2023-09-30T12:24:06;100775.72;;;23.32;100.00
44934;BME280;30667;43.614;1.442;2023-09-30T12:26:33;100775.63;;;23.53;100.00
44934;BME280;30667;43.614;1.442;2023-09-30T12:28:58;100773.59;;;23.91;100.00
44934;BME280;30667;43.614;1.442;2023-09-30T12:31:23;100773.63;;;23.66;100.00
44934;BME280;30667;43.614;1.442;2023-09-30T12:33:49;100759.59;;;23.47;100.00
44934;BME280;30667;43.614;1.442;2023-09-30T12:36:19;100761.88;;;23.69;100.00
44934;BME280;30667;43.614;1.442;2023-09-30T12:38:45;100763.69;;;23.90;100.00
44934;BME280;30667;43.614;1.442;2023-09-30T12:41:11;100758.06;;;23.74;100.00
44934;BME280;30667;43.614;1.442;2023-09-30T12:43:39;100755.09;;;23.54;100.00
44934;BME280;30667;43.614;1.442;2023-09-30T12:46:07;100759.06;;;23.41;100.00
44934;BME280;30667;43.614;1.442;2023-09-30T12:48:32;100753.19;;;23.43;100.00
44934;BME280;30667;43.614;1.442;2023-09-30T12:50:59;100753.72;;;23.61;100.00
44934;BME280;30667;43.614;1.442;2023-09-30T12:53:24;100745.44;;;23.48;100.00
44934;BME280;30667;43.614;1.442;2023-09-30T12:55:50;100759.06;;;23.41;100.00
44934;BME280;30667;43.614;1.442;2023-09-30T12:58:15;100751.31;;;23.59;100.00
44934;BME280;30667;43.614;1.442;2023-09-30T13:00:40;100746.28;;;23.49;100.00
44934;BME280;30667;43.614;1.442;2023-09-30T13:03:07;100738.88;;;23.40;100.00
44934;BME280;30667;43.614;1.442;2023-09-30T13:05:33;100731.69;;;23.36;100.00